CheckWX is a tool to help pilots better visualize weather data.  It is not intended as a substitute for an official pre-flight weather briefing.

21:04:29 UTC

KOLE METAR
Cattaraugus County-Olean Airport
Olean, New York, USA
Current

9 mins ago

KOLE 202055Z AUTO 31007KT 10SM SCT011 15/12 A2957 RMK AO2
Observed
Apr-20 @ 20:55 UTC
Wind
  • 310° at 7 KTS
Visibility
10 SM
Flight Rules
VFR
Cloud Levels
  • Scattered at 1,100' AGL
Temperature
15°C / 59°F
Dewpoint
12°C / 54°F
Humidity
82%
Altimeter
29.57" Hg
Pressure
1001.32 hPa
Previous

29 mins ago

KOLE 202035Z AUTO 35007KT 10SM SCT011 SCT021 SCT028 13/13 A2956 RMK AO2
Observed
Apr-20 @ 20:35 UTC
Wind
  • 350° at 7 KTS
Visibility
10 SM
Flight Rules
VFR
Cloud Levels
  • Scattered at 1,100' AGL
  • Scattered at 2,100' AGL
  • Scattered at 2,800' AGL
Temperature
13°C / 55°F
Dewpoint
13°C / 55°F
Humidity
100%
Altimeter
29.56" Hg
Pressure
1001.02 hPa
Previous

49 mins ago

KOLE 202015Z AUTO 01008KT 10SM BKN009 BKN021 BKN028 13/13 A2957 RMK AO2 LTG DSNT S AND SW
Observed
Apr-20 @ 20:15 UTC
Wind
  • 010° at 8 KTS
Visibility
10 SM
Flight Rules
IFR
Cloud Levels
  • Broken at 900' AGL
  • Broken at 2,100' AGL
  • Broken at 2,800' AGL
Temperature
13°C / 55°F
Dewpoint
13°C / 55°F
Humidity
100%
Altimeter
29.57" Hg
Pressure
1001.32 hPa